Time;durP1;ratioP1;P1;durP2;ratioP2;P2;SDS_P1;SDS_P2;PMS_P1;PMS_P2;Temp;Humidity;BMP_temperature;BMP_pressure;BME280_temperature;BME280_humidity;BME280_pressure;Samples;Min_cycle;Max_cycle;Signal;HPM_P1;HPM_P2
2022/12/12 00:00:45;;;;;;;58.63;27.23;;;-1.80;99.90;;;;;;2059559;28;20026;-69
2022/12/12 00:01:52;;;;;;;60.47;26.98;;;-1.80;99.90;;;;;;2060578;28;20019;-69
2022/12/12 00:02:52;;;;;;;56.70;25.50;;;-1.80;99.90;;;;;;2055960;28;20027;-69
2022/12/12 00:03:54;;;;;;;58.90;26.65;;;-1.80;99.90;;;;;;2057224;28;20081;-70
2022/12/12 00:04:57;;;;;;;53.80;25.45;;;-1.80;99.90;;;;;;2055701;28;20014;-69
2022/12/12 00:05:58;;;;;;;57.28;26.73;;;-1.80;99.90;;;;;;2056046;28;20119;-69
2022/12/12 00:06:58;;;;;;;56.80;25.20;;;-1.80;99.90;;;;;;2056036;28;20038;-69
2022/12/12 00:07:59;;;;;;;57.83;26.58;;;-1.80;99.90;;;;;;2056039;28;20038;-69
2022/12/12 00:11:17;;;;;;;54.60;24.33;;;-1.80;99.90;;;;;;2056155;28;20030;-70
2022/12/12 00:12:18;;;;;;;60.13;26.42;;;-1.80;99.90;;;;;;2055931;28;20050;-69
2022/12/12 00:13:18;;;;;;;57.92;26.42;;;-1.80;99.90;;;;;;2055854;28;20768;-69
2022/12/12 00:14:19;;;;;;;57.28;26.45;;;-1.80;99.90;;;;;;2055867;28;20941;-70
2022/12/12 00:15:20;;;;;;;57.03;26.48;;;-1.80;99.90;;;;;;2055270;28;20633;-70
2022/12/12 00:16:22;;;;;;;58.60;27.35;;;-1.80;99.90;;;;;;2047148;28;20038;-69
2022/12/12 00:17:22;;;;;;;55.83;26.10;;;-1.80;99.90;;;;;;2055310;28;20053;-69
2022/12/12 00:18:23;;;;;;;57.88;26.80;;;-1.80;99.90;;;;;;2055076;28;20561;-70
2022/12/12 00:19:24;;;;;;;58.20;26.42;;;-1.80;99.90;;;;;;2054885;28;20050;-70
2022/12/12 00:20:25;;;;;;;57.70;25.80;;;-1.80;99.90;;;;;;2055157;28;20031;-70
2022/12/12 00:21:28;;;;;;;57.75;25.90;;;-1.80;99.90;;;;;;2055338;28;20608;-69
2022/12/12 00:22:28;;;;;;;57.35;26.25;;;-1.80;99.90;;;;;;2053333;28;20027;-70
2022/12/12 00:23:29;;;;;;;59.33;26.58;;;-1.80;99.90;;;;;;2055596;28;20023;-70
2022/12/12 00:24:30;;;;;;;58.45;26.38;;;-1.80;99.90;;;;;;2055748;28;20478;-70
2022/12/12 00:25:30;;;;;;;55.22;25.52;;;-1.80;99.90;;;;;;2055879;28;20490;-69
2022/12/12 00:26:33;;;;;;;56.03;25.80;;;-1.80;99.90;;;;;;2055911;28;20035;-69
2022/12/12 00:27:34;;;;;;;56.38;25.25;;;-1.90;99.90;;;;;;2063148;28;20085;-69
2022/12/12 00:28:35;;;;;;;57.97;26.42;;;-1.80;99.90;;;;;;2063027;28;20114;-70
2022/12/12 00:29:36;;;;;;;59.00;26.50;;;-1.80;99.90;;;;;;2055521;28;20093;-69
2022/12/12 00:30:36;;;;;;;57.40;26.17;;;-1.90;99.90;;;;;;2055832;28;20042;-69
2022/12/12 00:31:37;;;;;;;57.25;25.77;;;-1.90;99.90;;;;;;2055831;28;20054;-69
2022/12/12 00:32:38;;;;;;;57.17;26.67;;;-1.90;99.90;;;;;;2055800;28;20034;-69
2022/12/12 00:33:39;;;;;;;57.13;26.02;;;-1.90;99.90;;;;;;2055810;28;20054;-69
2022/12/12 00:34:40;;;;;;;59.15;26.15;;;-1.90;99.90;;;;;;2055937;28;20026;-69
2022/12/12 00:35:40;;;;;;;57.08;26.40;;;-1.90;99.90;;;;;;2055878;28;20532;-69
2022/12/12 00:36:41;;;;;;;54.00;25.00;;;-1.90;99.90;;;;;;2055662;28;20444;-69
2022/12/12 00:37:42;;;;;;;57.88;25.75;;;-1.90;99.90;;;;;;2055833;28;20414;-69
2022/12/12 00:38:42;;;;;;;58.60;26.08;;;-1.90;99.90;;;;;;2055954;28;20389;-69
2022/12/12 00:39:44;;;;;;;58.72;26.15;;;-1.90;99.90;;;;;;2055487;28;20034;-69
2022/12/12 00:40:45;;;;;;;55.50;25.17;;;-1.90;99.90;;;;;;2055772;28;20060;-69
2022/12/12 00:41:46;;;;;;;56.13;25.23;;;-1.90;99.90;;;;;;2055616;28;20047;-69
2022/12/12 00:42:46;;;;;;;52.70;24.25;;;-1.90;99.90;;;;;;2055909;28;20090;-70
2022/12/12 00:43:47;;;;;;;57.97;25.45;;;-1.80;99.90;;;;;;2055850;28;20035;-68
2022/12/12 00:44:48;;;;;;;58.67;26.45;;;-1.80;99.90;;;;;;2055562;28;20026;-70
2022/12/12 00:45:49;;;;;;;59.17;26.45;;;-1.80;99.90;;;;;;2055732;28;20031;-69
2022/12/12 00:46:49;;;;;;;55.78;26.05;;;-1.80;99.90;;;;;;2055574;28;20121;-69
2022/12/12 00:47:50;;;;;;;58.90;25.77;;;-1.80;99.90;;;;;;2055722;28;20031;-69
2022/12/12 00:48:54;;;;;;;58.78;25.98;;;-1.90;99.90;;;;;;2060369;28;20476;-69
2022/12/12 00:49:55;;;;;;;59.42;26.05;;;-1.90;99.90;;;;;;2055318;28;20089;-70
2022/12/12 00:50:56;;;;;;;60.35;25.77;;;-1.90;99.90;;;;;;2055524;28;20524;-70
2022/12/12 00:51:57;;;;;;;58.97;26.25;;;-1.90;99.90;;;;;;2058947;28;20028;-69
2022/12/12 00:52:57;;;;;;;58.53;26.50;;;-1.90;99.90;;;;;;2055763;28;20069;-69
2022/12/12 00:53:59;;;;;;;56.72;25.27;;;-1.90;99.90;;;;;;2055719;28;20105;-69
2022/12/12 00:55:00;;;;;;;58.40;26.45;;;-1.90;99.90;;;;;;2055791;28;20073;-69
2022/12/12 00:56:00;;;;;;;61.67;27.40;;;-1.90;99.90;;;;;;2055714;28;20019;-69
2022/12/12 00:57:01;;;;;;;60.80;27.05;;;-1.90;99.90;;;;;;2055434;28;20049;-69
2022/12/12 00:58:02;;;;;;;60.00;27.10;;;-1.90;99.90;;;;;;2055632;28;20141;-69
2022/12/12 00:59:03;;;;;;;61.15;26.88;;;-2.00;99.90;;;;;;2055935;28;20122;-69
2022/12/12 01:00:06;;;;;;;60.80;26.50;;;-2.00;99.90;;;;;;2055381;28;20042;-69
2022/12/12 01:01:11;;;;;;;59.72;26.00;;;-2.00;99.90;;;;;;2055745;28;20027;-69
2022/12/12 01:02:12;;;;;;;60.70;26.45;;;-2.00;99.90;;;;;;2055024;28;20616;-69
2022/12/12 01:03:12;;;;;;;56.42;25.45;;;-2.00;99.90;;;;;;2054930;28;20034;-69
2022/12/12 01:04:13;;;;;;;60.50;25.70;;;-1.90;99.90;;;;;;2054817;28;20040;-69
2022/12/12 01:05:14;;;;;;;60.97;26.63;;;-1.90;99.90;;;;;;2054974;28;20038;-69
2022/12/12 01:06:15;;;;;;;57.92;26.20;;;-1.90;99.90;;;;;;2055042;28;20501;-69
2022/12/12 01:07:16;;;;;;;61.22;27.42;;;-1.90;99.90;;;;;;2055624;28;20037;-69
2022/12/12 01:08:17;;;;;;;59.22;26.58;;;-2.00;99.90;;;;;;2055738;28;20383;-69
2022/12/12 01:09:17;;;;;;;63.22;27.42;;;-2.00;99.90;;;;;;2055460;28;20054;-69
2022/12/12 01:10:19;;;;;;;63.25;27.10;;;-2.00;99.90;;;;;;2055572;28;20023;-69
2022/12/12 01:11:20;;;;;;;58.78;26.15;;;-2.00;99.90;;;;;;2055562;28;20082;-69
2022/12/12 01:12:21;;;;;;;61.05;27.15;;;-2.00;99.90;;;;;;2055670;28;20390;-70
2022/12/12 01:13:22;;;;;;;61.55;26.30;;;-2.00;99.90;;;;;;2055466;28;20085;-69
2022/12/12 01:14:22;;;;;;;61.05;26.77;;;-2.00;99.90;;;;;;2055375;28;20541;-69
2022/12/12 01:15:23;;;;;;;58.75;26.27;;;-2.00;99.90;;;;;;2055465;28;20031;-69
2022/12/12 01:16:24;;;;;;;61.08;26.48;;;-2.00;99.90;;;;;;2055363;28;20027;-69
2022/12/12 01:17:25;;;;;;;61.58;26.90;;;-2.00;99.90;;;;;;2055663;28;20045;-69
2022/12/12 01:18:26;;;;;;;62.58;27.33;;;-2.00;99.90;;;;;;2055572;28;20759;-67
2022/12/12 01:19:26;;;;;;;61.38;26.92;;;-2.00;99.90;;;;;;2055287;28;20045;-69
2022/12/12 01:20:27;;;;;;;60.17;26.38;;;-2.00;99.90;;;;;;2055501;28;20045;-69
2022/12/12 01:21:28;;;;;;;58.47;25.67;;;-2.00;99.90;;;;;;2055441;28;20031;-69
2022/12/12 01:22:29;;;;;;;57.35;26.05;;;-2.00;99.90;;;;;;2055534;28;20031;-69
2022/12/12 01:23:29;;;;;;;57.30;25.95;;;-1.90;99.90;;;;;;2055400;28;20417;-69
2022/12/12 01:24:31;;;;;;;54.70;24.50;;;-1.90;99.90;;;;;;2055030;28;20026;-69
2022/12/12 01:25:31;;;;;;;58.80;25.75;;;-1.90;99.90;;;;;;2055575;28;20057;-69
2022/12/12 01:26:32;;;;;;;60.78;27.52;;;-1.90;99.90;;;;;;2055488;28;20041;-69
2022/12/12 01:27:33;;;;;;;58.40;26.13;;;-1.90;99.90;;;;;;2055377;28;20446;-69
2022/12/12 01:28:34;;;;;;;56.88;26.30;;;-1.80;99.90;;;;;;2055705;28;20107;-70
2022/12/12 01:29:35;;;;;;;60.13;26.25;;;-1.80;99.90;;;;;;2055368;28;20035;-69
2022/12/12 01:30:36;;;;;;;56.15;24.88;;;-1.80;99.90;;;;;;2055502;28;20035;-70
2022/12/12 01:31:37;;;;;;;54.92;26.05;;;-1.80;99.90;;;;;;2055248;28;20034;-70
2022/12/12 01:32:37;;;;;;;54.35;24.88;;;-1.70;99.90;;;;;;2055501;28;20030;-70
2022/12/12 01:33:38;;;;;;;56.58;25.08;;;-1.70;99.90;;;;;;2055375;28;20031;-69
2022/12/12 01:34:39;;;;;;;56.22;26.10;;;-1.70;99.90;;;;;;2055341;28;20026;-69
2022/12/12 01:35:40;;;;;;;56.28;25.77;;;-1.70;99.90;;;;;;2055236;28;20370;-70
2022/12/12 01:36:40;;;;;;;58.67;26.00;;;-1.80;99.90;;;;;;2054747;28;20635;-69
2022/12/12 01:37:41;;;;;;;58.65;26.13;;;-1.70;99.90;;;;;;2054586;28;20358;-70
2022/12/12 01:38:46;;;;;;;57.97;25.85;;;-1.70;99.90;;;;;;2055534;28;20108;-70
2022/12/12 01:39:46;;;;;;;57.75;25.52;;;-1.70;99.90;;;;;;2055323;28;20419;-70
2022/12/12 01:40:47;;;;;;;55.97;25.55;;;-1.60;99.90;;;;;;2055820;28;20038;-69
2022/12/12 01:41:47;;;;;;;57.25;25.80;;;-1.60;99.90;;;;;;2055513;28;20034;-69
2022/12/12 01:42:49;;;;;;;52.05;25.05;;;-1.60;99.90;;;;;;2055346;28;20022;-70
2022/12/12 01:43:50;;;;;;;52.53;24.08;;;-1.60;99.90;;;;;;2055089;28;20026;-70
2022/12/12 01:44:54;;;;;;;55.58;25.70;;;-1.60;99.90;;;;;;2060216;28;20420;-69
2022/12/12 01:46:01;;;;;;;54.67;25.15;;;-1.60;99.90;;;;;;2055192;28;20027;-69
2022/12/12 01:47:02;;;;;;;56.35;25.73;;;-1.60;99.90;;;;;;2055409;28;20503;-69
2022/12/12 01:48:04;;;;;;;56.47;26.35;;;-1.60;99.90;;;;;;2055914;28;20046;-69
2022/12/12 01:49:11;;;;;;;56.88;26.02;;;-1.70;99.90;;;;;;2055006;28;20042;-70
2022/12/12 01:50:12;;;;;;;59.42;25.67;;;-1.70;99.90;;;;;;2054684;28;20062;-70
2022/12/12 01:51:20;;;;;;;56.03;25.95;;;-1.70;99.90;;;;;;2054631;28;20023;-71
2022/12/12 01:52:27;;;;;;;59.55;25.80;;;-1.70;99.90;;;;;;2055448;28;20054;-70
2022/12/12 01:53:30;;;;;;;55.97;25.60;;;-1.70;99.90;;;;;;2054771;28;20050;-69
2022/12/12 01:54:34;;;;;;;60.47;26.30;;;-1.70;99.90;;;;;;2054922;28;20035;-69
2022/12/12 01:55:35;;;;;;;52.97;24.70;;;-1.70;99.90;;;;;;2055653;28;20073;-68
2022/12/12 01:56:38;;;;;;;53.20;24.13;;;-1.70;99.90;;;;;;2055564;28;20085;-68
2022/12/12 01:57:44;;;;;;;55.65;25.52;;;-1.70;99.90;;;;;;2054178;28;20035;-69
2022/12/12 01:58:47;;;;;;;52.55;24.52;;;-1.70;99.90;;;;;;2054734;28;20038;-69
2022/12/12 01:59:48;;;;;;;52.75;24.92;;;-1.70;99.90;;;;;;2054942;28;20126;-69
2022/12/12 02:00:49;;;;;;;57.00;26.35;;;-1.60;99.90;;;;;;2055215;28;20027;-69
2022/12/12 02:01:51;;;;;;;58.72;26.17;;;-1.60;99.90;;;;;;2054412;28;20483;-69
2022/12/12 02:02:54;;;;;;;57.47;26.50;;;-1.70;99.90;;;;;;2054578;28;20090;-69
2022/12/12 02:03:56;;;;;;;58.95;26.52;;;-1.70;99.90;;;;;;2054998;28;20750;-69
2022/12/12 02:05:01;;;;;;;58.15;26.30;;;-1.70;99.90;;;;;;2055268;28;20031;-69
2022/12/12 02:06:07;;;;;;;55.70;25.60;;;-1.70;99.90;;;;;;2054846;28;20034;-69
2022/12/12 02:07:08;;;;;;;60.00;26.80;;;-1.70;99.90;;;;;;2055155;28;20097;-69
2022/12/12 02:08:09;;;;;;;60.00;26.67;;;-1.70;99.90;;;;;;2055251;28;20046;-69
2022/12/12 02:09:12;;;;;;;60.28;26.92;;;-1.70;99.90;;;;;;2054439;28;20065;-69
2022/12/12 02:10:13;;;;;;;57.17;25.92;;;-1.70;99.90;;;;;;2056837;28;20077;-69
2022/12/12 02:11:14;;;;;;;58.60;26.77;;;-1.70;99.90;;;;;;2057196;28;20098;-69
2022/12/12 02:12:14;;;;;;;56.03;25.35;;;-1.80;99.90;;;;;;2057435;28;20126;-70
2022/12/12 02:13:22;;;;;;;59.28;26.75;;;-1.70;99.90;;;;;;2057429;28;20027;-68
2022/12/12 02:14:37;;;;;;;61.45;28.38;;;-1.70;99.90;;;;;;2057813;28;20062;-69
2022/12/12 02:16:02;;;;;;;60.63;26.05;;;-1.70;99.90;;;;;;2055696;28;20026;-68
2022/12/12 02:17:43;;;;;;;57.72;25.83;;;-1.70;99.90;;;;;;2055233;28;20050;-68
2022/12/12 02:19:02;;;;;;;;;;;-1.70;99.90;;;;;;2055740;28;20363;-69
2022/12/12 02:20:22;;;;;;;60.17;25.83;;;-1.70;99.90;;;;;;2048286;28;19985;-68
2022/12/12 02:21:45;;;;;;;62.90;26.23;;;-1.70;99.90;;;;;;2048861;28;20023;-69
2022/12/12 02:22:58;;;;;;;58.60;25.60;;;-1.70;99.90;;;;;;2046953;28;20122;-69
2022/12/12 02:24:31;;;;;;;60.17;27.00;;;-1.70;99.90;;;;;;2038727;29;20167;-69
2022/12/12 02:25:43;;;;;;;59.10;25.48;;;-1.70;99.90;;;;;;2043223;29;20035;-70
2022/12/12 02:27:09;;;;;;;60.05;26.05;;;-1.70;99.90;;;;;;2047079;28;20111;-71
2022/12/12 02:28:38;;;;;;;57.95;25.05;;;-1.70;99.90;;;;;;2047276;28;20497;-70
2022/12/12 02:29:42;;;;;;;56.95;24.90;;;-1.70;99.90;;;;;;2047164;28;20086;-70
2022/12/12 02:31:06;;;;;;;58.60;25.80;;;-1.60;99.90;;;;;;2047200;29;20032;-70
2022/12/12 02:32:22;;;;;;;60.55;25.50;;;-1.70;99.90;;;;;;2046448;28;20689;-70
2022/12/12 02:33:45;;;;;;;59.22;26.55;;;-1.70;99.90;;;;;;2046592;28;20053;-70
2022/12/12 02:35:08;;;;;;;58.92;25.48;;;-1.70;99.90;;;;;;2047224;29;20035;-69
2022/12/12 02:36:35;;;;;;;59.28;26.45;;;-1.70;99.90;;;;;;2047206;28;20114;-70
2022/12/12 02:37:49;;;;;;;59.33;26.25;;;-1.70;99.90;;;;;;2047452;28;20542;-70
2022/12/12 02:38:59;;;;;;;59.47;26.48;;;-1.70;99.90;;;;;;2047517;29;20473;-70
2022/12/12 02:40:19;;;;;;;62.58;26.90;;;-1.70;99.90;;;;;;2046906;29;20050;-70
2022/12/12 02:41:42;;;;;;;62.42;27.10;;;-1.70;99.90;;;;;;2057743;28;20026;-69
2022/12/12 02:43:06;;;;;;;63.50;27.65;;;-1.70;99.90;;;;;;2055193;28;20041;-70
2022/12/12 02:44:18;;;;;;;62.45;25.88;;;-1.70;99.90;;;;;;2058110;28;20047;-69
2022/12/12 02:45:45;;;;;;;59.55;26.30;;;-1.70;99.90;;;;;;2059373;28;20041;-69
2022/12/12 02:47:11;;;;;;;63.17;26.15;;;-1.70;99.90;;;;;;2054958;28;20035;-69
2022/12/12 02:48:41;;;;;;;62.78;26.08;;;-1.70;99.90;;;;;;2055485;28;20049;-69
2022/12/12 02:49:53;;;;;;;62.17;26.30;;;-1.70;99.90;;;;;;2054902;28;20023;-69
2022/12/12 02:50:57;;;;;;;62.33;27.38;;;-1.70;99.90;;;;;;2055086;28;20052;-69
2022/12/12 02:51:59;;;;;;;60.38;26.58;;;-1.80;99.90;;;;;;2055044;28;20052;-69
2022/12/12 02:53:03;;;;;;;61.75;27.50;;;-1.80;99.90;;;;;;2054966;28;20045;-69
2022/12/12 02:54:11;;;;;;;59.55;26.40;;;-1.80;99.90;;;;;;2054995;28;20041;-70
2022/12/12 02:55:12;;;;;;;60.70;26.40;;;-1.80;99.90;;;;;;2055270;28;20137;-69
2022/12/12 02:56:43;;;;;;;57.88;26.10;;;-1.80;99.90;;;;;;2055053;28;20035;-70
2022/12/12 02:57:44;;;;;;;60.88;25.65;;;-1.80;99.90;;;;;;2054234;28;20118;-69
2022/12/12 02:58:44;;;;;;;63.45;27.23;;;-1.80;99.90;;;;;;2054292;28;20035;-69
2022/12/12 02:59:56;;;;;;;62.78;27.27;;;-1.70;99.90;;;;;;2054736;28;20081;-69
2022/12/12 03:01:23;;;;;;;63.78;27.85;;;-1.80;99.90;;;;;;2055244;28;20034;-69
2022/12/12 03:02:33;;;;;;;66.00;27.75;;;-1.80;99.90;;;;;;2055405;28;20093;-69
2022/12/12 03:08:47;;;;;;;68.95;27.80;;;-1.90;99.90;;;;;;2047530;28;20031;-69
2022/12/12 03:09:59;;;;;;;64.20;26.23;;;-1.90;99.90;;;;;;2046728;28;20019;-69
2022/12/12 03:11:13;;;;;;;66.22;27.92;;;-1.90;99.90;;;;;;2047209;29;20422;-69
2022/12/12 03:12:37;;;;;;;66.78;27.80;;;-1.90;99.90;;;;;;2046877;28;20023;-69
2022/12/12 03:13:48;;;;;;;67.60;28.77;;;-1.80;99.90;;;;;;2038113;28;20493;-69
2022/12/12 03:15:06;;;;;;;69.80;28.50;;;-1.80;99.90;;;;;;2050721;28;20038;-69
2022/12/12 03:16:17;;;;;;;65.60;27.65;;;-1.80;99.90;;;;;;2055345;28;20133;-69
2022/12/12 03:17:30;;;;;;;63.17;27.02;;;-1.80;99.90;;;;;;2054963;28;20019;-69
2022/12/12 03:18:41;;;;;;;66.53;28.52;;;-1.80;99.90;;;;;;2055039;28;20189;-69
2022/12/12 03:19:51;;;;;;;68.15;28.35;;;-1.80;99.90;;;;;;2055218;28;20110;-69
2022/12/12 03:21:12;;;;;;;64.13;27.92;;;-1.80;99.90;;;;;;2057543;28;20030;-69
2022/12/12 03:22:29;;;;;;;64.22;27.55;;;-1.80;99.90;;;;;;2056912;28;20082;-69
2022/12/12 03:23:37;;;;;;;63.67;27.52;;;-1.80;99.90;;;;;;2059352;28;20058;-69
2022/12/12 03:24:58;;;;;;;65.30;28.67;;;-1.80;99.90;;;;;;2061276;28;20094;-69
2022/12/12 03:25:59;;;;;;;65.30;28.00;;;-1.80;99.90;;;;;;2061248;28;20034;-70
2022/12/12 03:27:08;;;;;;;68.88;29.45;;;-1.80;99.90;;;;;;2060130;28;20039;-69
2022/12/12 03:28:21;;;;;;;61.42;26.77;;;-1.90;99.90;;;;;;2065549;28;20550;-69
2022/12/12 03:29:29;;;;;;;67.85;28.95;;;-1.80;99.90;;;;;;2063197;28;20037;-70
2022/12/12 03:30:37;;;;;;;61.10;27.02;;;-1.80;99.90;;;;;;2057237;28;20481;-69
2022/12/12 03:31:43;;;;;;;63.95;28.17;;;-1.80;99.90;;;;;;2057197;28;20070;-69
2022/12/12 03:33:02;;;;;;;59.95;27.35;;;-1.80;99.90;;;;;;2057169;28;20035;-69
2022/12/12 03:34:36;;;;;;;64.35;28.35;;;-1.80;99.90;;;;;;2048407;29;20027;-69
2022/12/12 03:35:45;;;;;;;65.80;27.90;;;-1.70;99.90;;;;;;2047203;28;20113;-69
2022/12/12 03:37:09;;;;;;;64.30;28.70;;;-1.80;99.90;;;;;;2050005;28;20035;-69
2022/12/12 03:38:24;;;;;;;68.05;29.05;;;-1.70;99.90;;;;;;2055451;28;20094;-69
2022/12/12 03:39:51;;;;;;;61.28;28.02;;;-1.80;99.90;;;;;;2055472;28;20019;-69
2022/12/12 03:41:01;;;;;;;64.35;28.33;;;-1.80;99.90;;;;;;2058238;28;20039;-69
2022/12/12 03:42:27;;;;;;;61.33;28.10;;;-1.80;99.90;;;;;;2056140;28;20462;-69
2022/12/12 03:43:43;;;;;;;64.18;28.40;;;-1.80;99.90;;;;;;2055159;28;20106;-69
2022/12/12 03:44:55;;;;;;;62.63;28.67;;;-1.70;99.90;;;;;;2055902;28;20038;-70
2022/12/12 03:45:56;;;;;;;65.35;28.88;;;-1.70;99.90;;;;;;2056252;28;20109;-69
2022/12/12 03:47:06;;;;;;;63.28;28.48;;;-1.70;99.90;;;;;;2055998;28;20030;-69
2022/12/12 03:48:20;;;;;;;65.13;28.83;;;-1.70;99.90;;;;;;2056242;28;20031;-69
2022/12/12 03:49:41;;;;;;;66.95;29.33;;;-1.70;99.90;;;;;;2055385;28;20035;-69
2022/12/12 03:50:59;;;;;;;66.72;28.77;;;-1.70;99.90;;;;;;2048901;28;20126;-69
2022/12/12 03:52:10;;;;;;;67.38;28.95;;;-1.70;99.90;;;;;;2048755;28;20035;-69
2022/12/12 03:53:28;;;;;;;62.88;28.58;;;-1.70;99.90;;;;;;2055736;28;20082;-69
2022/12/12 03:55:00;;;;;;;66.18;28.83;;;-1.70;99.90;;;;;;2056207;28;20090;-69
2022/12/12 03:56:04;;;;;;;62.35;27.98;;;-1.70;99.90;;;;;;2056784;28;20383;-69
2022/12/12 03:57:37;;;;;;;63.90;29.05;;;-1.70;99.90;;;;;;2063368;28;20068;-69
2022/12/12 03:58:48;;;;;;;62.05;27.40;;;-1.70;99.90;;;;;;2059639;28;20076;-69
2022/12/12 04:00:15;;;;;;;63.85;28.65;;;-1.70;99.90;;;;;;2055963;28;20082;-69
2022/12/12 04:01:24;;;;;;;65.63;28.55;;;-1.70;99.90;;;;;;2056078;28;20138;-69
2022/12/12 04:02:39;;;;;;;62.35;27.27;;;-1.60;99.90;;;;;;2055321;28;20034;-69
2022/12/12 04:03:53;;;;;;;62.75;27.75;;;-1.60;99.90;;;;;;2055656;28;20023;-69
2022/12/12 04:05:12;;;;;;;63.33;27.85;;;-1.60;99.90;;;;;;2048022;28;20106;-70
2022/12/12 04:06:34;;;;;;;64.28;27.63;;;-1.60;99.90;;;;;;2048216;29;20386;-69
2022/12/12 04:07:40;;;;;;;59.83;26.77;;;-1.60;99.90;;;;;;2047495;29;20039;-69
2022/12/12 04:12:57;;;;;;;61.97;27.35;;;-1.60;99.90;;;;;;2047649;29;20055;-69
2022/12/12 04:13:15;;;;;;;59.85;26.45;;;-1.60;99.90;;;;;;2056063;28;20631;-70
2022/12/12 04:14:48;;;;;;;60.67;25.75;;;-1.60;99.90;;;;;;2047451;28;20109;-70
2022/12/12 04:16:17;;;;;;;58.88;25.65;;;-1.70;99.90;;;;;;2055687;28;20110;-69
2022/12/12 04:17:23;;;;;;;60.30;25.92;;;-1.60;99.90;;;;;;2056280;28;20065;-70
2022/12/12 04:18:27;;;;;;;59.17;25.83;;;-1.70;99.90;;;;;;2056277;28;20102;-69
2022/12/12 04:24:34;;;;;;;54.67;24.27;;;-1.60;99.90;;;;;;2052866;29;20027;-70
2022/12/12 04:27:33;;;;;;;58.90;25.23;;;-1.60;99.90;;;;;;2050705;28;20027;-70
2022/12/12 04:28:38;;;;;;;54.55;24.02;;;-1.60;99.90;;;;;;2051328;28;20659;-70
2022/12/12 04:29:50;;;;;;;58.08;25.55;;;-1.60;99.90;;;;;;2050356;29;20027;-70
2022/12/12 04:30:51;;;;;;;55.85;25.05;;;-1.60;99.90;;;;;;2051656;29;20110;-70
2022/12/12 04:31:57;;;;;;;57.20;26.25;;;-1.50;99.90;;;;;;2049652;28;20024;-70
2022/12/12 04:33:09;;;;;;;56.15;25.15;;;-1.50;99.90;;;;;;2053454;28;20035;-70
2022/12/12 04:34:16;;;;;;;57.67;26.30;;;-1.50;99.90;;;;;;2062106;28;21352;-70
2022/12/12 04:35:22;;;;;;;55.30;25.08;;;-1.40;99.90;;;;;;2051751;28;20035;-68
2022/12/12 04:36:25;;;;;;;60.45;26.75;;;-1.40;99.90;;;;;;2057328;28;20027;-69
2022/12/12 04:37:30;;;;;;;55.47;25.58;;;-1.40;99.90;;;;;;2054506;28;20050;-69
2022/12/12 04:38:31;;;;;;;56.65;25.33;;;-1.40;99.90;;;;;;2056325;28;20855;-69
2022/12/12 04:39:34;;;;;;;55.55;25.77;;;-1.40;99.90;;;;;;2055632;28;20022;-69
2022/12/12 04:40:42;;;;;;;57.58;26.63;;;-1.40;99.90;;;;;;2055884;28;20089;-70
2022/12/12 04:41:45;;;;;;;55.05;25.45;;;-1.50;99.90;;;;;;2055748;28;20034;-69
2022/12/12 04:43:03;;;;;;;55.22;25.08;;;-1.50;99.90;;;;;;2055919;28;20058;-69
2022/12/12 04:44:09;;;;;;;58.00;25.92;;;-1.50;99.90;;;;;;2055384;28;20031;-70
2022/12/12 04:45:15;;;;;;;56.42;25.30;;;-1.50;99.90;;;;;;2055944;28;20074;-70
2022/12/12 04:46:20;;;;;;;54.35;25.17;;;-1.50;99.90;;;;;;2056017;28;20026;-70
2022/12/12 04:47:22;;;;;;;57.08;25.63;;;-1.50;99.90;;;;;;2055598;28;20039;-70
2022/12/12 04:48:36;;;;;;;56.45;25.02;;;-1.50;99.90;;;;;;2055015;28;20023;-70
2022/12/12 04:49:40;;;;;;;56.90;26.08;;;-1.50;99.90;;;;;;2040418;29;20028;-71
2022/12/12 04:50:47;;;;;;;57.55;26.13;;;-1.50;99.90;;;;;;2039921;28;20422;-70
2022/12/12 04:51:53;;;;;;;56.03;26.27;;;-1.50;99.90;;;;;;2048014;28;20052;-69
2022/12/12 04:52:57;;;;;;;58.47;26.25;;;-1.50;99.90;;;;;;2055223;28;20031;-70
2022/12/12 04:54:35;;;;;;;55.65;25.70;;;-1.50;99.90;;;;;;2055872;28;20034;-70
2022/12/12 04:55:42;;;;;;;55.97;24.75;;;-1.50;99.90;;;;;;2055714;28;20050;-70
2022/12/12 04:56:45;;;;;;;53.10;24.08;;;-1.50;99.90;;;;;;2055969;28;20029;-70
2022/12/12 04:57:52;;;;;;;57.15;25.80;;;-1.50;99.90;;;;;;2055989;28;20038;-68
2022/12/12 04:58:54;;;;;;;57.33;25.65;;;-1.40;99.90;;;;;;2048454;28;20027;-68
2022/12/12 04:59:55;;;;;;;55.55;25.48;;;-1.40;99.90;;;;;;2055639;28;20030;-68
2022/12/12 05:01:04;;;;;;;57.40;26.45;;;-1.40;99.90;;;;;;2056727;28;20023;-68
2022/12/12 05:02:14;;;;;;;58.17;25.45;;;-1.40;99.90;;;;;;2065421;28;20023;-68
2022/12/12 05:03:27;;;;;;;56.38;25.17;;;-1.50;99.90;;;;;;2064047;28;20030;-68
2022/12/12 05:04:50;;;;;;;51.50;23.83;;;-1.40;99.90;;;;;;2057492;28;20034;-68
2022/12/12 05:05:56;;;;;;;56.67;24.95;;;-1.40;99.90;;;;;;2056010;28;20089;-68
2022/12/12 05:07:03;;;;;;;56.75;26.15;;;-1.40;99.90;;;;;;2055671;28;20063;-69
2022/12/12 05:08:13;;;;;;;59.58;26.70;;;-1.40;99.90;;;;;;2055722;28;20103;-69
2022/12/12 05:09:16;;;;;;;60.83;27.40;;;-1.40;99.90;;;;;;2055548;28;20556;-69
2022/12/12 05:10:18;;;;;;;62.25;26.85;;;-1.50;99.90;;;;;;2055617;28;20055;-69
2022/12/12 05:11:20;;;;;;;60.63;28.02;;;-1.50;99.90;;;;;;2062872;28;20524;-69
2022/12/12 05:12:21;;;;;;;60.55;27.52;;;-1.50;99.90;;;;;;2063073;28;20480;-69
2022/12/12 05:13:26;;;;;;;62.95;28.73;;;-1.50;99.90;;;;;;2055591;28;20058;-69
2022/12/12 05:14:30;;;;;;;64.28;28.15;;;-1.50;99.90;;;;;;2055592;28;20035;-69
2022/12/12 05:15:30;;;;;;;61.55;27.95;;;-1.50;99.90;;;;;;2055643;28;20050;-69
2022/12/12 05:16:36;;;;;;;61.38;27.55;;;-1.50;99.90;;;;;;2055692;28;20038;-69
2022/12/12 05:18:07;;;;;;;63.28;27.65;;;-1.50;99.90;;;;;;2055299;28;20073;-69
2022/12/12 05:19:07;;;;;;;;;;;-1.50;99.90;;;;;;2047343;28;20373;-69
2022/12/12 05:20:09;;;;;;;63.85;27.05;;;-1.50;99.90;;;;;;2055653;28;19906;-68
2022/12/12 05:21:10;;;;;;;68.43;28.65;;;-1.50;99.90;;;;;;2056823;28;20050;-69
2022/12/12 05:22:10;;;;;;;64.10;28.52;;;-1.60;99.90;;;;;;2057820;28;20115;-69
2022/12/12 05:23:11;;;;;;;65.95;29.27;;;-1.60;99.90;;;;;;2058535;28;20039;-69
2022/12/12 05:24:12;;;;;;;62.42;28.55;;;-1.60;99.90;;;;;;2058880;28;20516;-69
2022/12/12 05:25:13;;;;;;;63.17;28.20;;;-1.60;99.90;;;;;;2060757;28;20058;-70
2022/12/12 05:26:21;;;;;;;64.43;29.10;;;-1.60;99.90;;;;;;2057678;28;20537;-69
2022/12/12 05:27:21;;;;;;;64.15;29.40;;;-1.60;99.90;;;;;;2062904;28;20141;-70
2022/12/12 05:28:22;;;;;;;62.75;28.42;;;-1.60;99.90;;;;;;2062972;28;20033;-70
2022/12/12 05:29:23;;;;;;;72.93;30.00;;;-1.60;99.90;;;;;;2055582;28;20034;-71
2022/12/12 05:30:23;;;;;;;64.78;27.88;;;-1.60;99.90;;;;;;2055494;28;20023;-69
2022/12/12 05:31:24;;;;;;;71.82;30.30;;;-1.60;99.90;;;;;;2054949;28;20058;-71
2022/12/12 05:32:25;;;;;;;64.68;28.52;;;-1.60;99.90;;;;;;2055299;28;20097;-70
2022/12/12 05:33:26;;;;;;;65.15;29.13;;;-1.60;99.90;;;;;;2054776;28;20122;-70
2022/12/12 05:34:26;;;;;;;67.78;28.98;;;-1.60;99.90;;;;;;2054631;28;20046;-70
2022/12/12 05:35:27;;;;;;;64.40;28.77;;;-1.60;99.90;;;;;;2055526;28;20750;-71
2022/12/12 05:36:28;;;;;;;69.70;30.00;;;-1.60;99.90;;;;;;2054583;28;20133;-70
2022/12/12 05:37:29;;;;;;;70.43;29.88;;;-1.50;99.90;;;;;;2054958;28;20023;-71
2022/12/12 05:38:29;;;;;;;66.40;29.23;;;-1.50;99.90;;;;;;2055535;28;20043;-70
2022/12/12 05:39:30;;;;;;;66.18;28.58;;;-1.50;99.90;;;;;;2054428;28;20069;-70
2022/12/12 05:40:31;;;;;;;67.55;30.30;;;-1.50;99.90;;;;;;2054773;28;20141;-71
2022/12/12 05:41:31;;;;;;;69.75;30.05;;;-1.50;99.90;;;;;;2054772;28;20049;-71
2022/12/12 05:42:32;;;;;;;64.50;28.75;;;-1.50;99.90;;;;;;2054609;28;20026;-71
2022/12/12 05:43:33;;;;;;;67.28;28.73;;;-1.50;99.90;;;;;;2055439;28;20500;-71
2022/12/12 05:44:34;;;;;;;68.07;29.50;;;-1.50;99.90;;;;;;2055164;28;20069;-71
2022/12/12 05:45:34;;;;;;;66.30;28.77;;;-1.50;99.90;;;;;;2054718;28;20065;-71
2022/12/12 05:46:35;;;;;;;66.32;29.73;;;-1.50;99.90;;;;;;2054712;28;20442;-71
2022/12/12 05:47:36;;;;;;;67.60;30.13;;;-1.50;99.90;;;;;;2055368;28;20034;-70
2022/12/12 05:48:36;;;;;;;65.75;28.85;;;-1.50;99.90;;;;;;2055373;28;20030;-69
2022/12/12 05:49:37;;;;;;;66.70;29.38;;;-1.40;99.90;;;;;;2056264;28;20050;-70
2022/12/12 05:50:38;;;;;;;66.35;29.92;;;-1.40;99.90;;;;;;2055456;28;20031;-70
2022/12/12 05:51:39;;;;;;;68.28;30.00;;;-1.40;99.90;;;;;;2054725;28;20052;-71
2022/12/12 05:52:39;;;;;;;65.70;29.75;;;-1.40;99.90;;;;;;2046850;29;20086;-70
2022/12/12 05:53:41;;;;;;;66.97;29.20;;;-1.40;99.90;;;;;;2054562;28;20536;-69
2022/12/12 05:54:41;;;;;;;65.15;29.40;;;-1.40;99.90;;;;;;2055443;28;20027;-69
2022/12/12 05:55:42;;;;;;;63.85;29.55;;;-1.50;99.90;;;;;;2055365;28;20022;-69
2022/12/12 05:56:43;;;;;;;63.33;28.92;;;-1.50;99.90;;;;;;2054827;28;20027;-68